Time;durP1;ratioP1;P1;durP2;ratioP2;P2;SDS_P1;SDS_P2;PMS_P1;PMS_P2;Temp;Humidity;BMP_temperature;BMP_pressure;BME280_temperature;BME280_humidity;BME280_pressure;Samples;Min_cycle;Max_cycle;Signal;HPM_P1;HPM_P2
2023/08/14 00:02:32;;;;;;;7.60;1.73;;;;;;;20.97;63.92;100388.03;10418454;28;97192;-82
2023/08/14 00:07:36;;;;;;;5.07;1.73;;;;;;;20.91;63.97;100380.50;10447053;27;96929;-82
2023/08/14 00:12:40;;;;;;;6.95;1.70;;;;;;;20.84;64.09;100375.78;10460368;27;96558;-82
2023/08/14 00:17:44;;;;;;;4.78;1.67;;;;;;;20.73;63.95;100370.41;10459018;27;96883;-82
2023/08/14 00:22:48;;;;;;;6.82;1.52;;;;;;;20.69;nan;100366.31;10459508;27;96617;-82
2023/08/14 00:27:54;;;;;;;2.30;1.00;;;;;;;20.67;64.39;100360.22;10458036;27;118100;-82
2023/08/14 00:32:58;;;;;;;5.07;1.73;;;;;;;20.61;64.18;100356.22;10459093;27;96762;-82
2023/08/14 00:38:01;;;;;;;3.17;1.30;;;;;;;20.44;64.50;100355.84;10459025;27;97537;-82
2023/08/14 00:43:06;;;;;;;6.32;1.90;;;;;;;20.43;64.40;100354.97;10459985;27;96856;-82
2023/08/14 00:48:10;;;;;;;3.28;1.50;;;;;;;20.38;64.43;100357.16;10440399;22;97424;-82
2023/08/14 00:53:15;;;;;;;3.63;1.37;;;;;;;20.28;64.79;100345.44;10458712;27;96784;-82
2023/08/14 00:58:19;;;;;;;;;;;;;;;20.45;64.73;100339.66;10391177;27;96811;-82
2023/08/14 01:03:25;;;;;;;4.80;1.50;;;;;;;20.28;64.37;100340.09;10375180;28;96819;-82
2023/08/14 01:08:29;;;;;;;3.90;1.48;;;;;;;20.30;64.11;100340.88;10373541;28;96808;-82
2023/08/14 01:13:44;;;;;;;4.05;1.58;;;;;;;19.87;65.48;100334.44;10375006;28;96720;-82
2023/08/14 01:18:48;;;;;;;4.90;1.90;;;;;;;20.00;64.95;100332.53;10396519;28;96985;-82
2023/08/14 01:24:02;;;;;;;6.07;1.90;;;;;;;19.71;65.90;100328.56;10415836;28;97106;-82
2023/08/14 01:29:07;;;;;;;4.93;1.90;;;;;;;19.76;65.66;100319.25;10408927;28;96784;-82
2023/08/14 01:34:13;;;;;;;4.85;1.92;;;;;;;19.95;65.05;100316.00;10374633;28;96725;-82
2023/08/14 01:39:24;;;;;;;7.10;1.80;;;;;;;19.60;65.79;100318.69;10373682;28;97237;-82
2023/08/14 01:44:32;;;;;;;3.60;1.73;;;;;;;19.23;66.72;100306.38;10373510;28;96638;-82
2023/08/14 01:49:38;;;;;;;2.25;1.60;;;;;;;19.83;65.06;100306.25;10377073;28;97646;-81
2023/08/14 01:54:41;;;;;;;3.17;1.50;;;;;;;19.60;65.39;100300.00;10414847;28;97633;-82
2023/08/14 01:59:48;;;;;;;3.60;1.80;;;;;;;19.51;65.76;100310.53;10414584;28;96718;-82
2023/08/14 02:04:51;;;;;;;3.40;1.80;;;;;;;19.59;65.55;100306.31;10387667;28;96611;-82
2023/08/14 02:09:56;;;;;;;4.32;1.92;;;;;;;19.63;65.20;100305.09;10372515;28;97381;-82
2023/08/14 02:15:01;;;;;;;;;;;;;;;19.48;65.96;100313.41;10373010;28;96600;-82
2023/08/14 02:20:06;;;;;;;3.07;1.70;;;;;;;19.45;65.53;100314.50;10385968;28;96915;-82
2023/08/14 02:25:09;;;;;;;3.50;1.50;;;;;;;19.47;65.23;100312.59;10372791;28;96750;-82
2023/08/14 02:30:14;;;;;;;3.15;1.15;;;;;;;19.36;65.59;100311.63;10371986;28;96684;-82
2023/08/14 02:35:18;;;;;;;5.03;1.77;;;;;;;19.06;66.28;100312.94;10371823;28;96745;-82
2023/08/14 02:40:21;;;;;;;4.13;1.48;;;;;;;19.09;66.09;100304.72;10371216;28;97640;-82
2023/08/14 02:45:26;;;;;;;4.72;1.83;;;;;;;19.13;66.64;100297.34;10371440;28;96657;-82
2023/08/14 02:50:29;;;;;;;1.88;1.40;;;;;;;19.28;65.68;100294.38;10408310;27;96742;-82
2023/08/14 02:55:32;;;;;;;5.28;1.48;;;;;;;19.34;65.35;100293.06;10417797;27;96764;-82
2023/08/14 03:00:37;;;;;;;2.35;1.63;;;;;;;19.09;66.13;100287.88;10370812;28;97489;-82
2023/08/14 03:05:41;;;;;;;3.10;1.52;;;;;;;18.95;66.10;100280.91;10371346;28;97197;-82
2023/08/14 03:10:44;;;;;;;2.70;1.27;;;;;;;18.90;66.59;100282.19;10371108;28;96863;-82
2023/08/14 03:15:49;;;;;;;4.90;1.67;;;;;;;19.09;66.05;100275.38;10371387;28;96619;-82
2023/08/14 03:20:52;;;;;;;2.03;1.25;;;;;;;19.28;65.17;100277.53;10379794;28;96891;-81
2023/08/14 03:25:55;;;;;;;3.75;1.70;;;;;;;19.30;65.33;100273.78;10411762;28;97454;-82
2023/08/14 03:31:00;;;;;;;3.35;1.65;;;;;;;19.26;65.11;100269.66;10383771;28;96744;-81
2023/08/14 03:36:03;;;;;;;4.85;2.00;;;;;;;18.77;66.95;100265.38;10377491;28;96653;-81
2023/08/14 03:41:06;;;;;;;2.42;1.63;;;;;;;19.30;65.60;100262.28;10377569;28;97325;-81
2023/08/14 03:46:11;;;;;;;5.80;1.70;;;;;;;19.68;64.64;100265.59;10377170;28;100107;-82
2023/08/14 03:51:15;;;;;;;4.03;1.85;;;;;;;19.80;64.32;100263.78;10436079;27;96705;-82
2023/08/14 03:56:18;;;;;;;4.13;1.50;;;;;;;19.51;64.95;100266.00;10420409;27;96864;-82
2023/08/14 04:01:23;;;;;;;3.35;1.55;;;;;;;19.04;66.49;100264.19;10417414;28;97389;-82
2023/08/14 04:06:26;;;;;;;3.92;1.40;;;;;;;19.17;66.28;100269.47;10372819;28;97958;-82
2023/08/14 04:11:30;;;;;;;3.97;1.67;;;;;;;18.85;66.99;100265.69;10376349;28;96565;-82
2023/08/14 04:16:44;;;;;;;2.57;1.43;;;;;;;18.95;67.43;100269.38;10375893;28;97006;-81
2023/08/14 04:21:48;;;;;;;4.80;1.80;;;;;;;19.37;66.09;100271.53;10392390;28;96769;-82
2023/08/14 04:26:51;;;;;;;4.20;1.77;;;;;;;19.17;66.85;100269.47;10417801;28;96893;-82
2023/08/14 04:31:56;;;;;;;2.05;1.58;;;;;;;19.19;66.86;100272.88;10417168;28;96750;-82
2023/08/14 04:37:00;;;;;;;3.22;1.48;;;;;;;19.29;67.03;100272.09;10403216;28;96590;-82
2023/08/14 04:42:04;;;;;;;5.95;1.65;;;;;;;19.38;67.09;100286.56;10374628;28;96736;-81
2023/08/14 04:47:09;;;;;;;3.83;1.80;;;;;;;19.70;66.05;100273.47;10374969;28;96802;-82
2023/08/14 04:52:12;;;;;;;5.60;1.90;;;;;;;19.65;66.24;100279.16;10418751;27;96710;-82
2023/08/14 04:57:15;;;;;;;4.28;1.70;;;;;;;19.62;66.47;100290.06;10376735;27;97840;-82
2023/08/14 05:02:20;;;;;;;4.82;1.67;;;;;;;19.59;67.01;100292.97;10374917;28;96931;-82
2023/08/14 05:07:24;;;;;;;4.00;1.73;;;;;;;19.73;66.14;100297.25;10374671;28;96857;-82
2023/08/14 05:12:29;;;;;;;3.95;1.60;;;;;;;20.05;65.67;100300.97;10373949;28;97539;-82
2023/08/14 05:17:34;;;;;;;3.55;1.73;;;;;;;20.06;65.60;100306.22;10374225;28;96903;-82
2023/08/14 05:22:38;;;;;;;5.13;2.20;;;;;;;20.00;66.10;100309.34;10380229;28;96676;-82
2023/08/14 05:27:41;;;;;;;4.55;1.80;;;;;;;20.08;65.83;100320.28;10414957;28;97655;-82
2023/08/14 05:32:47;;;;;;;4.82;1.75;;;;;;;20.16;65.72;100317.00;10415523;28;96780;-82
2023/08/14 05:37:55;;;;;;;4.03;1.90;;;;;;;20.30;65.32;100324.84;10414756;28;97567;-82
2023/08/14 05:43:06;;;;;;;3.38;1.75;;;;;;;19.98;65.93;100319.28;10415046;28;96715;-82
2023/08/14 05:48:11;;;;;;;5.35;2.05;;;;;;;19.98;66.07;100315.75;10415549;27;96684;-82
2023/08/14 05:53:15;;;;;;;4.78;1.80;;;;;;;20.03;65.93;100322.44;10456360;27;96869;-82
2023/08/14 05:58:18;;;;;;;6.32;2.08;;;;;;;20.14;65.65;100318.94;10420380;27;96672;-82
2023/08/14 06:03:23;;;;;;;5.22;2.40;;;;;;;20.27;65.49;100319.72;10382677;28;97379;-82
2023/08/14 06:08:44;;;;;;;3.92;2.15;;;;;;;20.32;64.92;100314.88;10372580;28;96627;-82
2023/08/14 06:13:47;;;;;;;4.63;1.83;;;;;;;20.23;65.48;100326.25;10372829;28;96706;-82
2023/08/14 06:18:52;;;;;;;5.38;2.03;;;;;;;20.33;65.15;100330.81;10372494;28;97674;-82
2023/08/14 06:23:56;;;;;;;5.18;2.17;;;;;;;20.29;65.12;100334.63;10396070;28;96918;-82
2023/08/14 06:29:00;;;;;;;2.50;1.80;;;;;;;20.29;65.09;100337.31;10371886;28;96747;-82
2023/08/14 06:34:06;;;;;;;5.03;2.08;;;;;;;20.47;64.74;100328.84;10372099;28;96638;-82
2023/08/14 06:39:10;;;;;;;4.55;1.88;;;;;;;20.18;65.41;100334.66;10372312;28;96928;-82
2023/08/14 06:44:14;;;;;;;4.70;2.00;;;;;;;20.05;66.27;100336.56;10371508;28;96901;-82
2023/08/14 06:49:19;;;;;;;3.05;1.75;;;;;;;19.97;66.38;100340.78;10376266;28;96872;-82
2023/08/14 06:54:22;;;;;;;4.78;1.88;;;;;;;20.07;66.00;100347.97;10389585;28;97003;-82
2023/08/14 06:59:26;;;;;;;4.20;2.25;;;;;;;20.07;65.92;100345.31;10450040;27;96678;-81
2023/08/14 07:04:31;;;;;;;7.22;2.55;;;;;;;20.05;66.01;100357.06;10455068;27;96679;-82
2023/08/14 07:09:34;;;;;;;6.18;2.30;;;;;;;20.07;65.81;100365.81;10440885;27;96766;-82
2023/08/14 07:14:38;;;;;;;6.05;2.55;;;;;;;20.38;65.38;100367.03;10378394;28;97238;-81
2023/08/14 07:19:43;;;;;;;3.55;1.80;;;;;;;20.22;65.96;100376.16;10378029;28;97478;-81
2023/08/14 07:24:46;;;;;;;4.18;2.03;;;;;;;20.31;65.92;100382.66;10412758;28;97361;-81
2023/08/14 07:29:49;;;;;;;4.03;2.67;;;;;;;20.38;65.88;100391.06;10382695;28;96811;-82
2023/08/14 07:34:54;;;;;;;5.80;2.40;;;;;;;20.66;65.30;100393.28;10377786;28;96834;-82
2023/08/14 07:39:58;;;;;;;4.55;2.35;;;;;;;20.86;64.83;100398.75;10377549;28;97688;-82
2023/08/14 07:45:02;;;;;;;5.60;2.60;;;;;;;20.70;65.03;100397.41;10376497;28;96706;-81
2023/08/14 07:50:08;;;;;;;5.23;2.27;;;;;;;21.43;63.56;100390.56;10388370;28;96619;-82
2023/08/14 07:55:12;;;;;;;4.63;2.00;;;;;;;22.09;61.75;100376.06;10418891;28;96902;-82
2023/08/14 08:00:17;;;;;;;4.13;2.30;;;;;;;21.73;62.97;100363.91;10410629;28;97214;-82
2023/08/14 08:05:21;;;;;;;3.92;1.92;;;;;;;21.91;62.05;100372.22;10376470;28;96744;-82
2023/08/14 08:10:25;;;;;;;4.63;2.30;;;;;;;22.16;61.64;100369.22;10376862;28;96550;-82
2023/08/14 08:15:28;;;;;;;3.83;2.07;;;;;;;22.84;59.75;100377.50;10376332;28;96649;-82
2023/08/14 08:20:33;;;;;;;5.43;2.55;;;;;;;23.34;58.55;100376.53;10377153;28;96969;-82
2023/08/14 08:25:36;;;;;;;4.05;1.95;;;;;;;23.88;57.21;100370.66;10396949;28;97066;-82
2023/08/14 08:30:41;;;;;;;3.85;1.75;;;;;;;24.12;57.12;100373.75;10417751;28;96974;-82
2023/08/14 08:35:46;;;;;;;4.85;2.20;;;;;;;23.89;57.20;100375.06;10415561;28;96676;-82
2023/08/14 08:40:50;;;;;;;3.38;1.90;;;;;;;24.05;56.51;100378.00;10417189;28;96732;-82
2023/08/14 08:45:59;;;;;;;3.08;2.03;;;;;;;24.94;54.38;100374.81;10417311;28;96999;-82
2023/08/14 08:51:05;;;;;;;3.88;2.08;;;;;;;24.96;54.46;100371.97;10411097;28;97659;-82
2023/08/14 08:56:09;;;;;;;4.82;2.13;;;;;;;24.83;54.75;100373.16;10374929;28;96862;-82
2023/08/14 09:01:12;;;;;;;;;;;;;;;24.76;54.11;100369.34;10375353;28;96950;-81
2023/08/14 09:06:17;;;;;;;6.93;2.00;;;;;;;25.55;52.97;100372.34;10374931;28;97703;-82
2023/08/14 09:11:20;;;;;;;3.03;1.77;;;;;;;25.44;53.70;100376.13;10375936;28;97452;-82
2023/08/14 09:16:24;;;;;;;6.38;2.33;;;;;;;25.92;52.69;100373.91;10374252;28;96806;-81
2023/08/14 09:21:30;;;;;;;6.60;2.35;;;;;;;25.65;53.75;100368.59;10374637;28;98151;-82
2023/08/14 09:26:33;;;;;;;4.75;1.73;;;;;;;25.24;54.30;100362.91;10383183;28;96802;-82
2023/08/14 09:31:37;;;;;;;5.05;1.95;;;;;;;25.16;54.83;100352.91;10373516;28;96662;-81
2023/08/14 09:36:41;;;;;;;3.03;1.87;;;;;;;26.33;51.50;100356.22;10373692;28;97215;-82
2023/08/14 09:41:47;;;;;;;4.78;1.70;;;;;;;26.76;51.22;100361.56;10374288;28;96669;-81
2023/08/14 09:46:54;;;;;;;3.33;1.90;;;;;;;26.78;50.97;100356.81;10372509;28;97553;-82
2023/08/14 09:51:59;;;;;;;6.25;2.00;;;;;;;27.08;50.30;100355.47;10395834;27;96724;-82
2023/08/14 09:57:05;;;;;;;5.22;1.90;;;;;;;26.98;50.13;100347.47;10456532;27;97060;-82
2023/08/14 10:02:16;;;;;;;4.70;1.80;;;;;;;27.69;49.13;100349.75;10391765;27;96780;-82
2023/08/14 10:07:24;;;;;;;4.50;1.65;;;;;;;28.02;48.46;100344.19;10372828;28;96934;-82
2023/08/14 10:12:29;;;;;;;3.08;1.58;;;;;;;28.30;48.10;100341.13;10372555;28;97761;-81
2023/08/14 10:17:39;;;;;;;2.63;1.50;;;;;;;28.03;48.47;100326.09;10371407;28;96714;-82
2023/08/14 10:22:45;;;;;;;4.78;1.90;;;;;;;28.68;47.65;100321.41;10372462;28;97669;-82
2023/08/14 10:27:48;;;;;;;3.08;1.67;;;;;;;28.61;47.46;100310.44;10411562;28;96919;-82
2023/08/14 10:32:52;;;;;;;4.10;2.00;;;;;;;28.66;47.26;100312.63;10409153;28;96756;-82
2023/08/14 10:37:58;;;;;;;2.42;1.35;;;;;;;28.75;47.14;100311.56;10371884;28;97863;-82
2023/08/14 10:43:12;;;;;;;6.28;2.10;;;;;;;28.63;47.06;100312.97;10370693;28;97530;-82
2023/08/14 10:48:17;;;;;;;5.20;1.70;;;;;;;28.73;46.66;100295.50;10371378;28;97381;-82
2023/08/14 10:53:24;;;;;;;2.40;1.48;;;;;;;28.25;45.97;100298.31;10373205;28;96787;-83
2023/08/14 10:58:47;;;;;;;3.47;1.55;;;;;;;28.01;44.44;100282.13;10370943;28;97529;-82
2023/08/14 11:03:58;;;;;;;4.77;1.50;;;;;;;28.07;42.67;100290.41;10371219;28;97096;-81
2023/08/14 11:09:05;;;;;;;3.65;1.48;;;;;;;28.14;43.58;100279.72;10370459;28;96860;-82
2023/08/14 11:14:08;;;;;;;3.67;1.40;;;;;;;28.38;43.32;100277.00;10370849;28;97073;-82
2023/08/14 11:19:12;;;;;;;2.42;1.15;;;;;;;28.26;43.37;100270.22;10370440;28;96889;-82
2023/08/14 11:24:18;;;;;;;2.45;1.40;;;;;;;28.91;42.79;100263.59;10379950;28;97336;-82
2023/08/14 11:29:22;;;;;;;3.47;1.60;;;;;;;29.08;43.05;100253.53;10411838;28;96767;-82
2023/08/14 11:34:25;;;;;;;2.08;1.17;;;;;;;29.16;42.50;100253.47;10411983;28;96777;-82
2023/08/14 11:39:31;;;;;;;3.10;1.48;;;;;;;29.21;42.69;100242.09;10411640;28;96791;-82
2023/08/14 11:44:35;;;;;;;2.75;1.40;;;;;;;29.02;42.39;100236.09;10411563;28;97138;-82
2023/08/14 11:49:39;;;;;;;2.70;1.63;;;;;;;28.55;42.62;100243.44;10410577;28;96932;-82
2023/08/14 11:54:44;;;;;;;2.67;1.60;;;;;;;28.74;42.03;100231.34;10441013;27;97595;-83
2023/08/14 11:59:49;;;;;;;2.83;1.52;;;;;;;28.87;41.98;100235.16;10417263;27;97458;-82
2023/08/14 12:04:56;;;;;;;3.50;1.77;;;;;;;28.81;41.83;100222.31;10376501;28;96727;-82
2023/08/14 12:10:07;;;;;;;2.05;1.45;;;;;;;28.90;41.33;100218.53;10376613;28;96765;-83
2023/08/14 12:15:11;;;;;;;2.90;1.50;;;;;;;28.97;41.25;100208.72;10376480;28;97946;-83
2023/08/14 12:20:16;;;;;;;4.13;1.42;;;;;;;29.10;40.94;100208.13;10375937;28;96864;-82
2023/08/14 12:25:22;;;;;;;2.97;1.50;;;;;;;29.07;40.55;100216.59;10394255;27;96918;-82
2023/08/14 12:30:26;;;;;;;3.78;1.80;;;;;;;29.32;39.84;100212.69;10417608;28;96622;-82
2023/08/14 12:35:30;;;;;;;2.72;1.98;;;;;;;29.25;39.35;100205.47;10383165;28;97073;-82
2023/08/14 12:40:35;;;;;;;;;;;;;;;29.55;38.65;100199.16;10376675;28;96776;-83
2023/08/14 12:45:38;;;;;;;1.85;1.20;;;;;;;29.57;38.96;100211.50;10375829;28;96971;-83
2023/08/14 12:50:42;;;;;;;;;;;;;;;29.82;38.17;100203.97;10374532;28;96838;-82
2023/08/14 12:55:47;;;;;;;3.92;1.90;;;;;;;29.79;38.48;100205.19;10391100;28;96837;-83
2023/08/14 13:01:05;;;;;;;2.22;1.42;;;;;;;29.90;38.01;100207.44;10416448;28;96586;-83
2023/08/14 13:06:08;;;;;;;2.92;1.40;;;;;;;30.05;38.47;100205.59;10408848;27;97449;-82
2023/08/14 13:11:13;;;;;;;;;;;;;;;30.16;37.64;100207.03;10375059;28;96704;-83
2023/08/14 13:16:21;;;;;;;3.78;1.80;;;;;;;30.37;37.50;100203.56;10407728;22;98467;-82
2023/08/14 13:21:26;;;;;;;3.17;1.70;;;;;;;30.46;37.38;100200.56;10416060;28;97107;-83
2023/08/14 13:26:33;;;;;;;2.42;1.60;;;;;;;30.59;37.68;100197.16;10399888;28;96961;-82
2023/08/14 13:31:41;;;;;;;3.03;1.63;;;;;;;30.70;37.70;100194.81;10415500;28;96696;-83
2023/08/14 13:36:52;;;;;;;4.05;1.60;;;;;;;30.54;37.87;100184.13;10414948;28;96574;-82
2023/08/14 13:41:59;;;;;;;2.65;1.40;;;;;;;30.73;37.43;100183.56;10432600;27;97106;-82
2023/08/14 13:47:06;;;;;;;2.53;1.20;;;;;;;30.60;36.98;100187.97;10426880;27;96673;-83
2023/08/14 13:52:11;;;;;;;1.88;1.10;;;;;;;30.74;36.96;100182.56;10415151;28;96653;-83
2023/08/14 13:57:20;;;;;;;2.55;1.48;;;;;;;30.66;36.45;100185.38;10405745;27;96731;-83
2023/08/14 14:02:26;;;;;;;4.00;1.90;;;;;;;30.66;38.21;100187.22;10373212;28;96751;-83
2023/08/14 14:07:29;;;;;;;2.85;1.80;;;;;;;30.65;38.12;100175.50;10372962;28;96710;-82
2023/08/14 14:12:45;;;;;;;4.63;1.90;;;;;;;30.80;38.61;100183.66;10372918;28;97159;-83
2023/08/14 14:18:03;;;;;;;4.68;2.40;;;;;;;30.67;39.41;100184.34;10373273;28;96784;-81
2023/08/14 14:23:06;;;;;;;3.10;2.13;;;;;;;30.80;38.89;100183.66;10372736;28;96704;-83
2023/08/14 14:28:16;;;;;;;4.07;2.55;;;;;;;30.43;39.64;100175.66;10371959;28;96741;-83
2023/08/14 14:33:19;;;;;;;4.32;2.40;;;;;;;30.34;39.86;100185.78;10380796;28;96831;-82
2023/08/14 14:38:25;;;;;;;3.83;1.88;;;;;;;30.51;40.01;100192.69;10413302;28;96651;-81
2023/08/14 14:43:30;;;;;;;5.28;2.40;;;;;;;30.39;40.29;100180.63;10413741;28;97775;-82
2023/08/14 14:48:33;;;;;;;4.57;2.17;;;;;;;30.30;40.29;100203.47;10402944;28;96891;-82
2023/08/14 14:53:36;;;;;;;;;;;;;;;30.03;41.01;100194.09;10371829;28;96646;-82
2023/08/14 14:58:43;;;;;;;4.67;2.47;;;;;;;30.35;40.60;100187.47;10371685;28;96968;-81
2023/08/14 15:03:46;;;;;;;6.53;2.50;;;;;;;30.16;40.55;100201.63;10371310;28;96669;-82
2023/08/14 15:08:49;;;;;;;;;;;;;;;29.95;40.54;100201.47;10373000;28;97914;-82
2023/08/14 15:13:54;;;;;;;4.67;2.53;;;;;;;29.78;40.98;100205.38;10371264;28;96804;-82
2023/08/14 15:18:57;;;;;;;5.00;2.40;;;;;;;29.86;40.64;100211.56;10370463;28;96773;-82
2023/08/14 15:24:00;;;;;;;;;;;;;;;29.67;41.08;100194.97;10371178;28;96770;-81
2023/08/14 15:29:05;;;;;;;4.25;2.10;;;;;;;29.59;41.28;100214.03;10414255;28;97822;-82
2023/08/14 15:34:08;;;;;;;2.03;1.30;;;;;;;29.87;40.69;100212.41;10419498;28;96603;-82
2023/08/14 15:39:12;;;;;;;3.80;1.80;;;;;;;29.65;40.64;100208.72;10411990;28;96783;-81
2023/08/14 15:44:16;;;;;;;3.17;1.55;;;;;;;29.40;41.02;100201.78;10377698;28;97089;-81
2023/08/14 15:49:20;;;;;;;3.42;1.50;;;;;;;29.47;40.69;100202.72;10377036;28;96824;-82
2023/08/14 15:54:23;;;;;;;3.67;1.65;;;;;;;29.28;41.05;100211.38;10377238;28;96742;-82
2023/08/14 15:59:29;;;;;;;;;;;;;;;29.18;40.91;100208.91;10378579;28;97175;-82
2023/08/14 16:04:32;;;;;;;1.90;1.13;;;;;;;29.25;41.18;100216.31;10377135;28;96716;-82
2023/08/14 16:09:35;;;;;;;4.28;1.65;;;;;;;29.19;41.19;100221.44;10376933;28;97864;-81
2023/08/14 16:14:40;;;;;;;4.32;1.40;;;;;;;29.31;40.96;100221.00;10375890;28;98796;-82
2023/08/14 16:19:43;;;;;;;2.90;1.45;;;;;;;29.27;41.22;100231.38;10375896;28;97135;-82
2023/08/14 16:24:46;;;;;;;4.40;1.50;;;;;;;29.23;41.35;100226.47;10376040;28;97407;-82
2023/08/14 16:29:51;;;;;;;1.65;1.02;;;;;;;29.27;41.23;100225.97;10410513;28;97771;-82
2023/08/14 16:34:54;;;;;;;2.65;1.38;;;;;;;29.26;41.56;100224.25;10398684;28;96741;-82
2023/08/14 16:40:00;;;;;;;2.80;0.95;;;;;;;29.06;42.13;100212.22;10415616;27;96736;-81
2023/08/14 16:45:06;;;;;;;3.33;0.98;;;;;;;28.80;42.52;100212.50;10416841;28;96806;-82
2023/08/14 16:50:10;;;;;;;3.17;1.20;;;;;;;28.70;43.26;100211.91;10385532;28;97617;-82
2023/08/14 16:55:15;;;;;;;1.92;0.80;;;;;;;28.59;43.24;100219.56;10375460;28;97675;-82
2023/08/14 17:00:19;;;;;;;2.10;0.98;;;;;;;28.38;43.37;100209.31;10374955;28;96754;-82
2023/08/14 17:05:23;;;;;;;2.58;0.95;;;;;;;28.31;43.74;100207.50;10374611;28;96710;-82
2023/08/14 17:10:27;;;;;;;2.88;1.00;;;;;;;28.18;44.19;100216.13;10374895;28;96629;-82
2023/08/14 17:15:40;;;;;;;2.50;0.77;;;;;;;27.92;44.49;100218.22;10374621;28;97778;-82
2023/08/14 17:20:48;;;;;;;1.67;1.13;;;;;;;28.00;44.38;100213.66;10374649;28;97181;-81
2023/08/14 17:25:55;;;;;;;2.25;0.90;;;;;;;27.82;44.66;100218.41;10379425;28;97272;-82
2023/08/14 17:31:01;;;;;;;2.42;0.90;;;;;;;27.91;44.85;100213.81;10416073;28;97180;-82
2023/08/14 17:36:06;;;;;;;1.40;0.90;;;;;;;27.88;45.01;100211.47;10415941;28;96785;-82
2023/08/14 17:41:11;;;;;;;2.17;0.93;;;;;;;27.96;45.01;100212.28;10384450;28;97743;-82
2023/08/14 17:46:19;;;;;;;1.98;0.90;;;;;;;27.85;45.23;100204.56;10373442;28;97497;-82
2023/08/14 17:51:23;;;;;;;2.10;0.85;;;;;;;27.71;45.26;100209.81;10373209;28;96865;-82
2023/08/14 17:56:26;;;;;;;2.42;0.88;;;;;;;27.64;45.01;100212.31;10373030;28;96681;-81
2023/08/14 18:01:33;;;;;;;1.08;0.95;;;;;;;27.62;45.36;100218.91;10373318;28;97325;-82
2023/08/14 18:06:37;;;;;;;4.10;1.25;;;;;;;27.47;45.83;100224.16;10373117;28;96696;-81
2023/08/14 18:11:40;;;;;;;1.38;0.85;;;;;;;27.38;46.33;100227.88;10373355;28;96652;-81
2023/08/14 18:16:45;;;;;;;1.88;0.82;;;;;;;27.17;46.58;100243.72;10372123;28;96697;-82
2023/08/14 18:21:48;;;;;;;2.25;0.98;;;;;;;27.05;47.15;100244.19;10372606;28;96623;-82
2023/08/14 18:26:51;;;;;;;2.15;0.82;;;;;;;26.84;48.34;100247.31;10388995;28;97370;-81
2023/08/14 18:31:56;;;;;;;2.40;0.90;;;;;;;26.55;48.66;100253.13;10384613;28;97664;-81
2023/08/14 18:36:59;;;;;;;3.05;0.82;;;;;;;26.60;49.04;100248.09;10372071;28;96707;-82
2023/08/14 18:42:04;;;;;;;1.63;0.70;;;;;;;26.46;49.37;100255.94;10372098;28;96616;-82
2023/08/14 18:47:09;;;;;;;2.63;0.90;;;;;;;26.37;49.32;100262.31;10370118;28;96821;-81
2023/08/14 18:52:12;;;;;;;2.03;0.80;;;;;;;26.02;50.38;100265.13;10371871;28;96627;-82
2023/08/14 18:57:15;;;;;;;1.63;0.60;;;;;;;25.96;50.35;100277.38;10371766;28;96713;-81
2023/08/14 19:02:20;;;;;;;;;;;;;;;26.02;50.21;100284.84;10371023;28;97112;-82
2023/08/14 19:07:24;;;;;;;3.63;0.70;;;;;;;25.84;51.01;100286.72;10371463;28;96802;-81
2023/08/14 19:12:27;;;;;;;1.63;0.93;;;;;;;25.81;50.89;100289.75;10371164;28;96825;-81
2023/08/14 19:17:32;;;;;;;2.20;0.85;;;;;;;25.71;51.01;100286.28;10370505;28;96845;-81
2023/08/14 19:22:35;;;;;;;1.83;0.85;;;;;;;25.48;51.19;100290.44;10372210;28;96858;-82
2023/08/14 19:27:40;;;;;;;2.53;1.10;;;;;;;25.40;51.48;100295.72;10394074;28;96654;-81
2023/08/14 19:32:45;;;;;;;2.42;0.80;;;;;;;25.44;51.39;100300.66;10412258;28;96572;-81
2023/08/14 19:37:48;;;;;;;2.05;0.77;;;;;;;25.35;51.71;100309.66;10398631;28;96770;-81
2023/08/14 19:42:51;;;;;;;0.80;0.73;;;;;;;25.35;51.70;100314.19;10370537;28;96817;-82
2023/08/14 19:47:56;;;;;;;2.50;0.80;;;;;;;25.29;52.11;100312.13;10370068;28;97002;-81
2023/08/14 19:53:00;;;;;;;1.25;0.75;;;;;;;25.21;52.47;100326.34;10370369;28;96817;-81
2023/08/14 19:58:03;;;;;;;2.17;0.63;;;;;;;25.04;53.17;100335.25;10370044;28;97572;-81
2023/08/14 20:03:08;;;;;;;2.17;0.77;;;;;;;24.99;53.26;100339.34;10369631;28;97671;-82
2023/08/14 20:08:12;;;;;;;2.60;1.17;;;;;;;24.83;54.18;100337.31;10369546;28;97535;-81
2023/08/14 20:13:15;;;;;;;2.67;1.00;;;;;;;24.77;54.21;100343.28;10374225;28;97288;-82
2023/08/14 20:18:20;;;;;;;3.93;1.10;;;;;;;24.71;54.45;100352.81;10375927;28;97240;-82
2023/08/14 20:23:23;;;;;;;1.60;0.80;;;;;;;24.65;54.85;100358.75;10376056;28;96684;-81
2023/08/14 20:28:26;;;;;;;2.60;1.10;;;;;;;24.59;55.15;100367.44;10415003;27;97969;-82
2023/08/14 20:33:31;;;;;;;1.57;0.90;;;;;;;24.47;55.97;100374.00;10375554;28;97666;-82
2023/08/14 20:38:34;;;;;;;2.33;1.00;;;;;;;24.33;56.38;100382.53;10375415;28;96899;-82
2023/08/14 20:43:37;;;;;;;2.70;0.80;;;;;;;24.39;56.23;100387.31;10375522;28;98218;-82
2023/08/14 20:48:42;;;;;;;4.27;0.97;;;;;;;24.33;56.46;100384.34;10375848;28;97071;-82
2023/08/14 20:53:45;;;;;;;2.35;0.80;;;;;;;24.35;56.23;100394.00;10374873;28;97556;-81
2023/08/14 20:58:48;;;;;;;1.90;0.90;;;;;;;24.30;56.26;100395.41;10374866;28;96731;-82
2023/08/14 21:03:53;;;;;;;3.13;0.87;;;;;;;24.05;57.32;100402.19;10376285;28;96638;-82
2023/08/14 21:08:56;;;;;;;2.53;1.08;;;;;;;24.13;57.05;100407.72;10374692;28;96694;-82
2023/08/14 21:13:59;;;;;;;2.20;0.98;;;;;;;24.05;57.17;100412.94;10374383;28;96698;-82
2023/08/14 21:19:04;;;;;;;2.30;1.00;;;;;;;23.99;57.57;100416.22;10373148;28;96718;-81
2023/08/14 21:24:08;;;;;;;2.88;0.77;;;;;;;23.87;57.96;100414.66;10378484;27;96933;-81
2023/08/14 21:29:11;;;;;;;1.47;0.90;;;;;;;23.87;57.93;100419.19;10418764;27;96725;-81
2023/08/14 21:34:16;;;;;;;2.40;1.00;;;;;;;23.66;58.60;100420.16;10415897;28;96632;-82
2023/08/14 21:39:20;;;;;;;2.80;1.05;;;;;;;23.56;58.76;100419.28;10381936;28;96668;-82
2023/08/14 21:44:23;;;;;;;2.70;1.00;;;;;;;23.58;59.03;100417.31;10373756;28;96733;-81
2023/08/14 21:49:27;;;;;;;2.10;0.83;;;;;;;23.48;59.23;100420.94;10373514;28;96783;-82
2023/08/14 21:54:31;;;;;;;0.82;0.65;;;;;;;23.44;59.40;100422.22;10374846;28;96955;-82
2023/08/14 21:59:36;;;;;;;2.78;0.80;;;;;;;23.33;59.59;100417.81;10373240;28;96685;-82
2023/08/14 22:04:41;;;;;;;1.10;1.00;;;;;;;23.28;59.99;100414.69;10372961;28;96694;-81
2023/08/14 22:09:44;;;;;;;2.22;0.98;;;;;;;23.30;59.50;100422.59;10372612;28;97832;-81
2023/08/14 22:14:47;;;;;;;1.20;0.70;;;;;;;23.08;60.22;100418.28;10372632;28;97088;-81
2023/08/14 22:19:52;;;;;;;2.75;1.00;;;;;;;23.09;60.34;100413.75;10371994;28;96948;-81
2023/08/14 22:24:55;;;;;;;2.80;0.98;;;;;;;22.86;60.86;100412.25;10383357;28;97233;-81
2023/08/14 22:29:58;;;;;;;2.10;1.08;;;;;;;22.92;60.61;100407.19;10382750;28;97496;-82
2023/08/14 22:35:03;;;;;;;1.67;0.82;;;;;;;22.97;60.22;100412.16;10371421;28;96657;-81
2023/08/14 22:40:08;;;;;;;1.58;0.90;;;;;;;22.93;60.19;100408.03;10371812;28;96700;-82
2023/08/14 22:45:11;;;;;;;;;;;;;;;22.79;61.42;100411.09;10373402;28;96776;-82
2023/08/14 22:50:15;;;;;;;1.23;0.98;;;;;;;22.73;60.92;100411.59;10371507;28;96908;-82
2023/08/14 22:55:19;;;;;;;2.92;0.93;;;;;;;22.67;61.54;100406.75;10371472;28;97619;-81
2023/08/14 23:00:22;;;;;;;3.53;1.13;;;;;;;22.51;62.03;100409.91;10370660;28;96712;-81
2023/08/14 23:05:27;;;;;;;1.97;1.00;;;;;;;22.41;62.28;100399.16;10412652;28;97266;-81
2023/08/14 23:10:30;;;;;;;2.67;0.88;;;;;;;22.52;61.91;100399.06;10412843;28;97842;-81
2023/08/14 23:15:33;;;;;;;1.63;0.90;;;;;;;22.45;62.13;100402.41;10412371;28;97437;-81
2023/08/14 23:20:38;;;;;;;1.40;0.83;;;;;;;22.43;62.00;100407.06;10411203;28;97114;-81
2023/08/14 23:25:42;;;;;;;1.80;1.02;;;;;;;22.42;62.10;100408.00;10426025;27;96704;-81